createdAt,value
2022-11-08T00:00:47.414Z,16.00
2022-11-08T00:03:16.312Z,16.60
2022-11-08T00:06:03.665Z,13.80
2022-11-08T00:08:51.315Z,14.80
2022-11-08T00:11:38.824Z,15.90
2022-11-08T00:14:07.742Z,15.50
2022-11-08T00:16:36.519Z,13.50
2022-11-08T00:19:05.271Z,12.60
2022-11-08T00:21:35.254Z,12.60
2022-11-08T00:24:04.209Z,12.40
2022-11-08T00:26:33.020Z,13.00
2022-11-08T00:29:02.265Z,13.40
2022-11-08T00:31:31.159Z,14.50
2022-11-08T00:33:59.944Z,13.00
2022-11-08T00:36:28.726Z,12.80
2022-11-08T00:38:57.536Z,13.40
2022-11-08T00:41:26.428Z,12.20
2022-11-08T00:43:55.241Z,13.00
2022-11-08T00:46:24.021Z,12.20
2022-11-08T00:48:52.820Z,14.30
2022-11-08T00:51:21.695Z,14.30
2022-11-08T00:53:50.697Z,13.70
2022-11-08T00:56:19.604Z,14.40
2022-11-08T00:58:48.385Z,14.90
2022-11-08T01:01:21.764Z,14.80
2022-11-08T01:03:51.261Z,15.10
2022-11-08T01:06:22.990Z,14.80
2022-11-08T01:08:52.519Z,16.60
2022-11-08T01:11:24.439Z,16.40
2022-11-08T01:13:57.690Z,16.60
2022-11-08T01:16:32.677Z,20.80
2022-11-08T01:19:02.489Z,22.80
2022-11-08T01:21:31.490Z,20.90
2022-11-08T01:24:00.683Z,20.50
2022-11-08T01:26:30.223Z,17.20
2022-11-08T01:28:59.402Z,19.20
2022-11-08T01:31:33.038Z,18.20
2022-11-08T01:34:01.848Z,19.10
2022-11-08T01:36:30.728Z,18.40
2022-11-08T01:38:59.567Z,18.20
2022-11-08T01:41:28.640Z,28.20
2022-11-08T01:43:59.995Z,20.30
2022-11-08T01:46:44.427Z,21.60
2022-11-08T01:49:39.101Z,22.30
2022-11-08T01:52:39.620Z,25.10
2022-11-08T01:55:30.576Z,26.60
2022-11-08T01:58:09.238Z,25.30
2022-11-08T02:00:39.698Z,21.50
2022-11-08T02:03:14.071Z,20.50
2022-11-08T02:05:46.535Z,22.80
2022-11-08T02:08:42.388Z,21.10
2022-11-08T02:11:16.229Z,19.50
2022-11-08T02:13:45.446Z,18.80
2022-11-08T02:16:16.665Z,17.50
2022-11-08T02:18:48.652Z,18.30
2022-11-08T02:21:48.889Z,20.40
2022-11-08T02:24:18.193Z,24.40
2022-11-08T02:26:50.237Z,23.10
2022-11-08T02:29:35.408Z,24.90
2022-11-08T02:32:06.516Z,24.50
2022-11-08T02:34:55.564Z,22.30
2022-11-08T02:37:27.297Z,23.40
2022-11-08T02:39:56.285Z,26.20
2022-11-08T02:42:25.559Z,27.70
2022-11-08T02:44:54.388Z,29.70
2022-11-08T02:47:25.635Z,29.00
2022-11-08T02:49:54.410Z,28.60
2022-11-08T02:52:23.279Z,28.50
2022-11-08T02:54:52.074Z,19.80
2022-11-08T02:57:20.838Z,19.90
2022-11-08T02:59:49.648Z,17.90
2022-11-08T03:02:18.758Z,20.70
2022-11-08T03:04:47.699Z,19.40
2022-11-08T03:07:20.772Z,22.30
2022-11-08T03:09:52.646Z,20.70
2022-11-08T03:12:21.546Z,19.50
2022-11-08T03:14:50.603Z,18.40
2022-11-08T03:17:19.487Z,20.80
2022-11-08T03:19:48.304Z,22.00
2022-11-08T03:22:17.197Z,22.70
2022-11-08T03:24:45.920Z,26.80
2022-11-08T03:27:15.456Z,28.70
2022-11-08T03:29:44.262Z,27.80
2022-11-08T03:32:14.412Z,30.60
2022-11-08T03:34:43.520Z,35.50
2022-11-08T03:37:12.339Z,38.00
2022-11-08T03:39:41.093Z,38.70
2022-11-08T03:42:10.438Z,43.20
2022-11-08T03:44:40.336Z,41.70
2022-11-08T03:47:09.667Z,41.10
2022-11-08T03:49:39.355Z,41.50
2022-11-08T03:52:08.250Z,42.50
2022-11-08T03:54:37.103Z,48.40
2022-11-08T03:57:06.729Z,49.90
2022-11-08T03:59:35.841Z,44.90
2022-11-08T04:02:04.824Z,46.60
2022-11-08T04:04:35.197Z,45.80
2022-11-08T04:07:03.974Z,50.10
2022-11-08T04:09:32.800Z,54.90
2022-11-08T04:12:20.358Z,51.30
2022-11-08T04:15:08.221Z,46.30
2022-11-08T04:17:55.531Z,39.60
2022-11-08T04:20:42.827Z,35.30
2022-11-08T04:23:12.054Z,35.20
2022-11-08T04:25:41.061Z,38.90
2022-11-08T04:28:10.201Z,29.50
2022-11-08T04:30:39.074Z,32.70
2022-11-08T04:33:07.866Z,34.50
2022-11-08T04:35:36.704Z,49.10
2022-11-08T04:38:05.523Z,36.00
2022-11-08T04:40:34.481Z,34.00
2022-11-08T04:43:03.335Z,31.70
2022-11-08T04:45:32.167Z,25.50
2022-11-08T04:48:01.104Z,23.00
2022-11-08T04:50:30.505Z,23.50
2022-11-08T04:52:59.499Z,24.80
2022-11-08T04:55:28.431Z,25.90
2022-11-08T04:57:59.259Z,26.10
2022-11-08T05:00:28.216Z,28.50
2022-11-08T05:02:56.994Z,30.40
2022-11-08T05:05:25.818Z,29.40
2022-11-08T05:07:55.309Z,43.60
2022-11-08T05:10:24.102Z,62.70
2022-11-08T05:12:57.132Z,52.50
2022-11-08T05:15:26.174Z,43.70
2022-11-08T05:17:55.195Z,36.80
2022-11-08T05:20:42.695Z,34.90
2022-11-08T05:23:26.734Z,34.00
2022-11-08T05:25:57.816Z,35.20
2022-11-08T05:28:26.664Z,37.30
2022-11-08T05:30:56.642Z,41.30
2022-11-08T05:33:26.262Z,39.00
2022-11-08T05:35:55.144Z,32.80
2022-11-08T05:38:24.077Z,35.20
2022-11-08T05:40:53.002Z,110.10
2022-11-08T05:43:21.824Z,67.20
2022-11-08T05:45:50.631Z,40.40
2022-11-08T05:48:19.600Z,40.10
2022-11-08T05:50:49.293Z,34.80
2022-11-08T05:53:18.621Z,32.60
2022-11-08T05:55:49.087Z,25.50
2022-11-08T05:58:17.965Z,25.10
2022-11-08T06:00:46.766Z,24.20
2022-11-08T06:03:19.705Z,23.30
2022-11-08T06:05:51.435Z,22.30
2022-11-08T06:08:20.432Z,19.50
2022-11-08T06:10:49.313Z,18.10
2022-11-08T06:13:18.083Z,17.60
2022-11-08T06:15:46.893Z,19.10
2022-11-08T06:18:15.734Z,17.80
2022-11-08T06:20:44.620Z,18.20
2022-11-08T06:23:13.373Z,22.70
2022-11-08T06:25:47.301Z,22.70
2022-11-08T06:28:16.403Z,20.70
2022-11-08T06:30:45.332Z,20.40
2022-11-08T06:33:14.231Z,18.30
2022-11-08T06:35:45.288Z,27.10
2022-11-08T06:38:14.139Z,31.10
2022-11-08T06:40:43.148Z,26.70
2022-11-08T06:43:17.973Z,21.50
2022-11-08T06:50:58.255Z,44.00
2022-11-08T06:53:27.130Z,41.80
2022-11-08T06:55:55.953Z,39.00
2022-11-08T06:58:24.829Z,29.70
2022-11-08T07:00:53.646Z,77.30
2022-11-08T07:03:22.686Z,37.70
2022-11-08T07:05:51.512Z,31.90
2022-11-08T07:08:23.757Z,24.60
2022-11-08T07:10:54.070Z,24.20
2022-11-08T07:13:23.155Z,22.40
2022-11-08T07:15:51.958Z,37.20
2022-11-08T07:18:20.891Z,24.90
2022-11-08T07:20:49.939Z,23.50
2022-11-08T07:23:20.090Z,25.20
2022-11-08T07:25:49.222Z,24.10
2022-11-08T07:28:19.690Z,24.60
2022-11-08T07:30:49.818Z,26.20
2022-11-08T07:33:19.064Z,26.00
2022-11-08T07:35:48.109Z,26.00
2022-11-08T07:38:16.917Z,30.00
2022-11-08T07:40:45.802Z,30.60
2022-11-08T07:43:16.697Z,33.00
2022-11-08T07:45:45.940Z,34.00
2022-11-08T07:48:14.876Z,43.00
2022-11-08T07:50:43.933Z,29.30
2022-11-08T07:53:12.986Z,31.80
2022-11-08T07:55:42.388Z,25.90
2022-11-08T07:58:12.026Z,26.20
2022-11-08T08:00:43.331Z,29.80
2022-11-08T08:03:14.783Z,33.10
2022-11-08T08:05:45.830Z,31.70
2022-11-08T08:08:14.724Z,34.60
2022-11-08T08:10:45.894Z,33.70
2022-11-08T08:13:15.994Z,34.20
2022-11-08T08:15:45.212Z,28.10
2022-11-08T08:18:14.181Z,29.00
2022-11-08T08:20:43.331Z,26.10
2022-11-08T08:23:12.240Z,23.60
2022-11-08T08:25:41.300Z,25.90
2022-11-08T08:28:11.404Z,24.30
2022-11-08T08:30:41.139Z,23.20
2022-11-08T08:33:32.444Z,22.00
2022-11-08T08:36:02.146Z,25.90
2022-11-08T08:38:33.461Z,25.70
2022-11-08T08:41:03.748Z,23.50
2022-11-08T08:43:32.816Z,25.90
2022-11-08T08:46:05.077Z,24.70
2022-11-08T08:48:36.647Z,26.40
2022-11-08T08:51:07.459Z,28.30
2022-11-08T08:53:40.176Z,27.80
2022-11-08T08:56:10.754Z,26.30
2022-11-08T08:58:40.502Z,27.40
2022-11-08T09:04:04.896Z,23.10
2022-11-08T09:06:34.655Z,27.00
2022-11-08T09:09:04.718Z,23.00
2022-11-08T09:11:34.151Z,18.00
2022-11-08T09:14:05.982Z,17.80
2022-11-08T09:16:36.489Z,17.80
2022-11-08T09:19:05.841Z,15.70
2022-11-08T09:21:35.046Z,16.50
2022-11-08T09:24:04.330Z,15.70
2022-11-08T09:26:33.587Z,16.50
2022-11-08T09:29:02.739Z,17.10
2022-11-08T09:31:32.154Z,15.90
2022-11-08T09:36:34.345Z,15.80
2022-11-08T09:39:04.299Z,16.10
2022-11-08T09:42:10.336Z,16.20
2022-11-08T09:45:20.965Z,14.40
2022-11-08T09:48:00.168Z,14.50
2022-11-08T09:50:47.723Z,14.70
2022-11-08T09:53:31.774Z,17.70
2022-11-08T09:56:16.113Z,18.60
2022-11-08T09:59:02.385Z,19.60
2022-11-08T10:01:35.490Z,16.60
2022-11-08T10:04:22.389Z,14.30
2022-11-08T10:07:41.540Z,14.60
2022-11-08T10:10:38.280Z,19.90
2022-11-08T10:13:21.111Z,14.90
2022-11-08T10:16:05.461Z,14.70
2022-11-08T10:19:01.222Z,14.90
2022-11-08T10:21:49.396Z,13.80
2022-11-08T10:24:27.610Z,12.50
2022-11-08T10:26:59.407Z,14.60
2022-11-08T10:29:44.186Z,13.80
2022-11-08T10:32:21.700Z,16.10
2022-11-08T10:35:32.510Z,14.30
2022-11-08T10:38:03.421Z,15.40
2022-11-08T10:40:47.542Z,14.40
2022-11-08T10:43:29.215Z,14.20
2022-11-08T10:45:58.049Z,11.40
2022-11-08T10:48:28.517Z,12.10
2022-11-08T10:50:57.400Z,11.00
2022-11-08T10:53:29.498Z,11.00
2022-11-08T10:56:06.344Z,11.00
2022-11-08T10:58:44.059Z,7.70
2022-11-08T11:01:24.469Z,6.60
2022-11-08T11:03:53.814Z,6.70
2022-11-08T11:06:32.821Z,6.60
2022-11-08T11:09:19.294Z,6.30
2022-11-08T11:11:59.038Z,6.70
2022-11-08T11:14:27.879Z,7.70
2022-11-08T11:17:16.879Z,8.20
2022-11-08T11:19:57.556Z,12.10
2022-11-08T11:22:35.567Z,9.70
2022-11-08T11:25:18.204Z,7.50
2022-11-08T11:27:58.876Z,5.90
2022-11-08T11:30:31.257Z,6.60
2022-11-08T11:33:24.161Z,6.50
2022-11-08T11:36:14.564Z,6.00
2022-11-08T11:39:05.185Z,6.10
2022-11-08T11:41:57.801Z,5.40
2022-11-08T11:44:41.793Z,7.20
2022-11-08T11:47:24.883Z,7.30
2022-11-08T11:49:59.245Z,10.40
2022-11-08T11:52:28.051Z,13.80
2022-11-08T11:54:57.171Z,7.00
2022-11-08T11:57:53.507Z,6.10
2022-11-08T12:00:22.570Z,6.20
2022-11-08T12:03:21.814Z,6.40
2022-11-08T12:06:29.383Z,4.80
2022-11-08T12:09:35.470Z,5.60
2022-11-08T12:12:41.975Z,6.20
2022-11-08T12:15:23.998Z,6.20
2022-11-08T12:18:37.002Z,5.20
2022-11-08T12:21:15.263Z,4.90
2022-11-08T12:24:37.863Z,4.80
2022-11-08T12:30:15.897Z,6.30
2022-11-08T12:33:12.286Z,5.20
2022-11-08T12:36:16.527Z,4.80
2022-11-08T12:38:54.553Z,9.10
2022-11-08T12:42:34.803Z,8.20
2022-11-08T12:45:57.730Z,7.00
2022-11-08T12:48:52.663Z,7.10
2022-11-08T12:52:01.742Z,6.40
2022-11-08T12:54:44.199Z,7.00
2022-11-08T12:57:17.756Z,6.30
2022-11-08T13:00:08.746Z,6.80
2022-11-08T13:02:39.756Z,6.80
2022-11-08T13:05:14.432Z,7.40
2022-11-08T13:08:04.813Z,7.00
2022-11-08T13:10:58.747Z,8.10
2022-11-08T13:13:46.115Z,8.70
2022-11-08T13:16:24.934Z,7.80
2022-11-08T13:18:55.891Z,6.30
2022-11-08T13:21:27.807Z,9.00
2022-11-08T13:24:09.847Z,9.30
2022-11-08T13:26:53.748Z,9.70
2022-11-08T13:29:27.575Z,9.90
2022-11-08T13:32:25.230Z,9.00
2022-11-08T13:35:09.337Z,9.10
2022-11-08T13:38:05.991Z,9.00
2022-11-08T13:40:44.753Z,9.60
2022-11-08T13:43:26.215Z,10.40
2022-11-08T13:45:56.056Z,10.60
2022-11-08T13:48:25.281Z,12.50
2022-11-08T13:51:31.212Z,12.50
2022-11-08T13:54:02.777Z,9.20
2022-11-08T13:56:48.201Z,12.70
2022-11-08T13:59:32.219Z,12.50
2022-11-08T14:02:21.393Z,9.40
2022-11-08T14:04:50.367Z,9.50
2022-11-08T14:07:46.615Z,11.20
2022-11-08T14:10:35.637Z,10.60
2022-11-08T14:13:21.148Z,9.10
2022-11-08T14:16:03.899Z,11.10
2022-11-08T14:18:35.848Z,10.20
2022-11-08T14:21:05.716Z,13.40
2022-11-08T14:23:39.956Z,11.20
2022-11-08T14:26:23.704Z,10.90
2022-11-08T14:28:53.878Z,11.40
2022-11-08T14:31:31.399Z,12.90
2022-11-08T14:34:02.009Z,11.90
2022-11-08T14:36:32.539Z,12.90
2022-11-08T14:39:19.176Z,13.90
2022-11-08T14:41:53.815Z,12.90
2022-11-08T14:44:23.718Z,12.90
2022-11-08T14:46:53.389Z,10.20
2022-11-08T14:49:36.639Z,10.50
2022-11-08T14:52:19.595Z,10.50
2022-11-08T14:54:58.464Z,10.80
2022-11-08T14:57:30.668Z,9.50
2022-11-08T15:00:05.667Z,7.30
2022-11-08T15:02:34.845Z,9.60
2022-11-08T15:05:05.740Z,13.10
2022-11-08T15:07:34.608Z,11.30
2022-11-08T15:10:09.849Z,12.60
2022-11-08T15:12:43.303Z,13.90
2022-11-08T15:15:32.592Z,10.90
2022-11-08T15:18:26.410Z,12.80
2022-11-08T15:21:16.218Z,12.30
2022-11-08T15:23:53.812Z,12.40
2022-11-08T15:26:23.890Z,13.40
2022-11-08T15:29:19.551Z,14.60
2022-11-08T15:32:04.569Z,15.20
2022-11-08T15:34:41.315Z,13.80
2022-11-08T15:37:21.563Z,17.00
2022-11-08T15:39:51.340Z,16.30
2022-11-08T15:42:21.399Z,20.00
2022-11-08T15:45:23.321Z,23.00
2022-11-08T15:47:54.319Z,23.50
2022-11-08T15:50:30.612Z,24.30
2022-11-08T15:53:03.661Z,23.60
2022-11-08T15:55:39.484Z,19.60
2022-11-08T15:58:40.216Z,18.50
2022-11-08T16:01:20.183Z,16.70
2022-11-08T16:03:49.203Z,17.20
2022-11-08T16:06:18.406Z,16.90
2022-11-08T16:08:47.329Z,18.00
2022-11-08T16:11:23.435Z,16.20
2022-11-08T16:13:52.328Z,18.40
2022-11-08T16:16:21.348Z,17.20
2022-11-08T16:18:50.358Z,19.60
2022-11-08T16:21:19.185Z,20.20
2022-11-08T16:23:47.956Z,20.90
2022-11-08T16:26:20.512Z,24.00
2022-11-08T16:28:49.361Z,22.60
2022-11-08T16:31:18.604Z,23.30
2022-11-08T16:33:47.695Z,27.10
2022-11-08T16:36:23.448Z,30.20
2022-11-08T16:38:57.874Z,31.10
2022-11-08T16:41:26.797Z,30.30
2022-11-08T16:43:56.544Z,34.20
2022-11-08T16:46:25.515Z,35.10
2022-11-08T16:49:00.176Z,33.60
2022-11-08T16:51:30.644Z,32.90
2022-11-08T16:54:02.808Z,33.40
2022-11-08T16:56:31.633Z,34.50
2022-11-08T16:59:00.547Z,33.90
2022-11-08T17:01:33.374Z,33.50
2022-11-08T17:04:02.466Z,33.70
2022-11-08T17:06:31.302Z,37.70
2022-11-08T17:09:00.083Z,39.60
2022-11-08T17:11:28.887Z,36.90
2022-11-08T17:13:59.086Z,42.10
2022-11-08T17:16:27.900Z,53.00
2022-11-08T17:18:57.894Z,54.80
2022-11-08T17:24:21.235Z,43.40
2022-11-08T17:26:50.836Z,41.60
2022-11-08T17:29:20.049Z,41.40
2022-11-08T17:31:49.738Z,40.90
2022-11-08T17:34:18.677Z,39.30
2022-11-08T17:36:47.759Z,38.20
2022-11-08T17:39:16.780Z,40.20
2022-11-08T17:41:45.690Z,38.40
2022-11-08T17:44:14.739Z,39.20
2022-11-08T17:46:43.809Z,39.30
2022-11-08T17:49:12.692Z,39.70
2022-11-08T17:51:41.820Z,37.10
2022-11-08T17:54:10.637Z,35.40
2022-11-08T17:56:39.801Z,37.90
2022-11-08T17:59:08.625Z,38.20
2022-11-08T18:01:37.948Z,38.10
2022-11-08T18:04:07.194Z,37.20
2022-11-08T18:06:36.302Z,37.70
2022-11-08T18:09:07.394Z,36.10
2022-11-08T18:11:36.775Z,37.60
2022-11-08T18:14:05.692Z,36.40
2022-11-08T18:16:34.601Z,35.40
2022-11-08T18:19:03.396Z,31.50
2022-11-08T18:21:32.967Z,33.80
2022-11-08T18:24:01.918Z,33.60
2022-11-08T18:26:30.887Z,32.30
2022-11-08T18:29:02.356Z,30.00
2022-11-08T18:31:34.754Z,28.70
2022-11-08T18:34:03.747Z,29.40
2022-11-08T18:36:32.697Z,28.60
2022-11-08T18:39:02.741Z,33.60
2022-11-08T18:41:34.089Z,31.90
2022-11-08T18:44:03.208Z,32.60
2022-11-08T18:46:41.789Z,31.00
2022-11-08T18:49:11.544Z,44.90
2022-11-08T18:51:46.683Z,29.30
2022-11-08T18:54:50.556Z,25.50
2022-11-08T18:57:20.702Z,24.20
2022-11-08T18:59:50.162Z,22.90
2022-11-08T19:02:23.492Z,23.40
2022-11-08T19:04:54.003Z,23.20
2022-11-08T19:07:27.879Z,28.30
2022-11-08T19:09:57.042Z,29.80
2022-11-08T19:12:32.749Z,32.20
2022-11-08T19:15:05.704Z,31.40
2022-11-08T19:17:36.457Z,30.90
2022-11-08T19:20:06.284Z,31.80
2022-11-08T19:22:35.926Z,33.20
2022-11-08T19:25:06.461Z,28.10
2022-11-08T19:27:35.500Z,26.90
2022-11-08T19:30:05.306Z,27.90
2022-11-08T19:32:34.463Z,29.50
2022-11-08T19:35:03.469Z,27.30
2022-11-08T19:37:33.708Z,26.40
2022-11-08T19:40:04.484Z,26.20
2022-11-08T19:42:34.611Z,27.50
2022-11-08T19:45:03.678Z,26.60
2022-11-08T19:47:33.968Z,27.50
2022-11-08T19:50:02.999Z,28.20
2022-11-08T19:52:33.361Z,27.60
2022-11-08T19:55:02.424Z,28.00
2022-11-08T19:57:32.614Z,28.80
2022-11-08T20:00:02.022Z,30.50
2022-11-08T20:02:42.497Z,34.00
2022-11-08T20:05:11.580Z,33.80
2022-11-08T20:07:40.532Z,35.40
2022-11-08T20:10:09.900Z,33.70
2022-11-08T20:12:38.922Z,34.10
2022-11-08T20:15:08.220Z,42.80
2022-11-08T20:17:37.115Z,34.70
2022-11-08T20:20:06.506Z,33.90
2022-11-08T20:22:35.364Z,34.30
2022-11-08T20:25:05.123Z,36.30
2022-11-08T20:27:34.293Z,37.00
2022-11-08T20:30:03.972Z,38.80
2022-11-08T20:32:33.963Z,41.80
2022-11-08T20:35:04.208Z,39.20
2022-11-08T20:37:33.467Z,40.10
2022-11-08T20:40:02.532Z,45.00
2022-11-08T20:42:31.391Z,57.80
2022-11-08T20:45:00.281Z,61.30
2022-11-08T20:47:31.932Z,53.40
2022-11-08T20:50:05.254Z,55.10
2022-11-08T20:52:34.439Z,55.60
2022-11-08T20:55:05.346Z,48.10
2022-11-08T20:57:36.307Z,50.30
2022-11-08T21:00:13.049Z,51.30
2022-11-08T21:02:42.944Z,47.20
2022-11-08T21:05:11.918Z,60.20
2022-11-08T21:08:01.767Z,67.00
2022-11-08T21:10:43.054Z,54.60
2022-11-08T21:13:12.946Z,54.90
2022-11-08T21:15:47.391Z,64.10
2022-11-08T21:18:20.527Z,64.80
2022-11-08T21:20:51.590Z,67.80
2022-11-08T21:23:20.590Z,69.40
2022-11-08T21:25:51.503Z,57.40
2022-11-08T21:28:20.643Z,55.30
2022-11-08T21:30:50.000Z,66.10
2022-11-08T21:33:19.490Z,52.90
2022-11-08T21:35:54.101Z,44.20
2022-11-08T21:38:24.375Z,40.80
2022-11-08T21:40:55.006Z,39.00
2022-11-08T21:43:24.320Z,44.00
2022-11-08T21:45:53.531Z,41.50
2022-11-08T21:48:23.518Z,41.50
2022-11-08T21:50:52.551Z,44.40
2022-11-08T21:53:21.566Z,42.70
2022-11-08T21:55:58.121Z,43.90
2022-11-08T21:58:27.113Z,42.50
2022-11-08T22:00:56.147Z,45.70
2022-11-08T22:03:25.153Z,46.30
2022-11-08T22:05:54.161Z,43.20
2022-11-08T22:08:23.086Z,40.80
2022-11-08T22:10:52.105Z,44.20
2022-11-08T22:13:21.100Z,60.40
2022-11-08T22:15:50.075Z,43.30
2022-11-08T22:18:26.392Z,44.40
2022-11-08T22:21:26.601Z,51.70
2022-11-08T22:23:56.699Z,47.50
2022-11-08T22:26:25.817Z,46.90
2022-11-08T22:31:27.267Z,42.40
2022-11-08T22:33:56.207Z,40.90
2022-11-08T22:36:25.678Z,45.90
2022-11-08T22:38:55.315Z,36.60
2022-11-08T22:41:25.284Z,37.40
2022-11-08T22:43:54.509Z,40.60
2022-11-08T22:46:23.509Z,38.90
2022-11-08T22:48:52.442Z,38.60
2022-11-08T22:51:21.502Z,40.20
2022-11-08T22:53:50.389Z,42.70
2022-11-08T22:56:19.365Z,40.20
2022-11-08T22:58:48.378Z,37.80
2022-11-08T23:01:17.412Z,36.40
2022-11-08T23:03:48.027Z,39.50
2022-11-08T23:06:17.674Z,36.90
2022-11-08T23:08:47.911Z,40.40
2022-11-08T23:11:35.781Z,38.90
2022-11-08T23:14:23.896Z,37.40
2022-11-08T23:16:52.799Z,38.60
2022-11-08T23:19:42.945Z,37.60
2022-11-08T23:22:34.993Z,36.10
2022-11-08T23:25:05.319Z,40.70
2022-11-08T23:27:55.775Z,38.90
2022-11-08T23:30:43.205Z,36.70
2022-11-08T23:33:12.205Z,39.60
2022-11-08T23:36:01.054Z,34.80
2022-11-08T23:38:30.113Z,37.70
2022-11-08T23:41:18.289Z,38.50
2022-11-08T23:44:05.769Z,39.90
2022-11-08T23:46:34.668Z,41.00
2022-11-08T23:49:04.311Z,43.30
2022-11-08T23:51:33.622Z,37.70
2022-11-08T23:54:02.537Z,36.50
2022-11-08T23:56:31.473Z,37.10
2022-11-08T23:59:01.180Z,35.50
